createdAt,value
2022-07-31T00:01:24.956Z,21.83
2022-07-31T00:03:56.982Z,21.81
2022-07-31T00:06:29.020Z,21.76
2022-07-31T00:09:00.935Z,21.76
2022-07-31T00:11:32.897Z,21.75
2022-07-31T00:14:04.968Z,21.68
2022-07-31T00:16:36.928Z,21.58
2022-07-31T00:19:09.110Z,21.55
2022-07-31T00:21:40.996Z,21.55
2022-07-31T00:24:14.417Z,21.54
2022-07-31T00:26:46.281Z,21.52
2022-07-31T00:29:18.186Z,21.51
2022-07-31T00:31:50.109Z,21.50
2022-07-31T00:34:22.322Z,21.55
2022-07-31T00:36:54.281Z,21.54
2022-07-31T00:39:26.658Z,21.56
2022-07-31T00:41:58.657Z,21.58
2022-07-31T00:44:30.717Z,21.59
2022-07-31T00:47:04.608Z,21.62
2022-07-31T00:49:37.905Z,21.64
2022-07-31T00:52:10.089Z,21.66
2022-07-31T00:54:42.203Z,21.66
2022-07-31T00:57:15.295Z,21.71
2022-07-31T00:59:47.202Z,21.72
2022-07-31T01:02:19.120Z,21.73
2022-07-31T01:04:50.985Z,21.73
2022-07-31T01:07:22.891Z,21.77
2022-07-31T01:09:55.301Z,21.79
2022-07-31T01:12:35.986Z,21.80
2022-07-31T01:15:09.360Z,21.79
2022-07-31T01:17:42.088Z,21.76
2022-07-31T01:20:14.390Z,21.75
2022-07-31T01:23:13.900Z,21.74
2022-07-31T01:26:02.754Z,21.71
2022-07-31T01:29:04.892Z,21.65
2022-07-31T01:31:42.463Z,21.62
2022-07-31T01:34:29.253Z,21.59
2022-07-31T01:37:12.935Z,21.53
2022-07-31T01:39:51.019Z,21.51
2022-07-31T01:42:27.907Z,21.50
2022-07-31T01:45:01.251Z,21.52
2022-07-31T01:47:34.621Z,21.47
2022-07-31T01:50:08.513Z,21.44
2022-07-31T01:53:00.953Z,21.44
2022-07-31T01:56:00.916Z,21.43
2022-07-31T01:58:28.152Z,21.40
2022-07-31T02:01:08.816Z,21.38
2022-07-31T02:03:45.478Z,21.36
2022-07-31T02:06:20.719Z,21.35
2022-07-31T02:08:54.549Z,21.36
2022-07-31T02:11:27.664Z,21.34
2022-07-31T02:14:03.000Z,21.26
2022-07-31T02:16:38.202Z,21.16
2022-07-31T02:19:19.573Z,21.07
2022-07-31T02:21:51.618Z,21.04
2022-07-31T02:24:23.526Z,21.04
2022-07-31T02:26:56.598Z,21.07
2022-07-31T02:29:31.402Z,21.09
2022-07-31T02:32:03.844Z,21.10
2022-07-31T02:34:59.669Z,21.06
2022-07-31T02:37:34.118Z,21.04
2022-07-31T02:40:06.983Z,21.05
2022-07-31T02:42:40.828Z,21.07
2022-07-31T02:45:13.692Z,21.11
2022-07-31T02:47:46.231Z,21.09
2022-07-31T02:50:20.291Z,21.07
2022-07-31T02:52:53.040Z,21.05
2022-07-31T02:55:25.181Z,21.03
2022-07-31T02:57:57.200Z,21.00
2022-07-31T03:00:29.557Z,20.98
2022-07-31T03:03:02.142Z,20.99
2022-07-31T03:05:34.936Z,21.01
2022-07-31T03:08:09.282Z,20.96
2022-07-31T03:10:45.024Z,20.97
2022-07-31T03:13:17.418Z,20.97
2022-07-31T03:15:51.087Z,20.97
2022-07-31T03:18:24.059Z,20.88
2022-07-31T03:20:56.855Z,20.79
2022-07-31T03:23:36.189Z,20.78
2022-07-31T03:26:14.978Z,20.76
2022-07-31T03:28:47.290Z,20.79
2022-07-31T03:31:21.933Z,20.77
2022-07-31T03:33:53.965Z,20.74
2022-07-31T03:36:27.146Z,20.75
2022-07-31T03:38:59.194Z,20.77
2022-07-31T03:41:39.613Z,20.75
2022-07-31T03:44:11.801Z,20.75
2022-07-31T03:46:44.014Z,20.71
2022-07-31T03:49:17.383Z,20.65
2022-07-31T03:51:49.733Z,20.61
2022-07-31T03:54:22.463Z,20.63
2022-07-31T03:57:18.433Z,20.67
2022-07-31T03:59:57.722Z,20.65
2022-07-31T04:02:30.090Z,20.68
2022-07-31T04:05:14.276Z,20.68
2022-07-31T04:07:46.522Z,20.68
2022-07-31T04:10:18.685Z,20.66
2022-07-31T04:12:50.791Z,20.61
2022-07-31T04:15:23.133Z,20.53
2022-07-31T04:17:55.122Z,20.44
2022-07-31T04:20:33.343Z,20.34
2022-07-31T04:23:07.074Z,20.29
2022-07-31T04:25:58.110Z,20.29
2022-07-31T04:28:56.049Z,20.26
2022-07-31T04:31:30.093Z,20.28
2022-07-31T04:34:03.280Z,20.28
2022-07-31T04:36:35.354Z,20.24
2022-07-31T04:39:07.470Z,20.24
2022-07-31T04:41:39.910Z,20.22
2022-07-31T04:44:12.328Z,20.19
2022-07-31T04:47:01.173Z,20.16
2022-07-31T04:49:37.301Z,20.18
2022-07-31T04:52:09.893Z,20.19
2022-07-31T04:54:42.516Z,20.22
2022-07-31T04:57:21.265Z,20.22
2022-07-31T04:59:59.092Z,20.22
2022-07-31T05:02:33.634Z,20.24
2022-07-31T05:05:06.284Z,20.26
2022-07-31T05:07:44.755Z,20.28
2022-07-31T05:10:39.655Z,20.32
2022-07-31T05:13:11.682Z,20.38
2022-07-31T05:15:43.867Z,20.42
2022-07-31T05:18:15.961Z,20.40
2022-07-31T05:21:06.498Z,20.42
2022-07-31T05:24:02.407Z,20.40
2022-07-31T05:26:51.075Z,20.41
2022-07-31T05:29:23.227Z,20.44
2022-07-31T05:32:10.175Z,20.47
2022-07-31T05:34:43.032Z,20.53
2022-07-31T05:37:15.806Z,20.59
2022-07-31T05:39:48.814Z,20.66
2022-07-31T05:42:39.139Z,20.73
2022-07-31T05:45:28.424Z,20.85
2022-07-31T05:48:00.317Z,20.96
2022-07-31T05:50:34.394Z,21.09
2022-07-31T05:53:06.493Z,21.17
2022-07-31T05:56:01.921Z,21.26
2022-07-31T05:58:48.257Z,21.35
2022-07-31T06:01:21.537Z,21.44
2022-07-31T06:03:54.499Z,21.50
2022-07-31T06:06:30.054Z,21.57
2022-07-31T06:09:04.703Z,21.65
2022-07-31T06:11:41.398Z,21.77
2022-07-31T06:14:13.515Z,21.84
2022-07-31T06:17:06.050Z,21.92
2022-07-31T06:19:39.498Z,22.00
2022-07-31T06:22:11.625Z,22.05
2022-07-31T06:24:43.689Z,22.09
2022-07-31T06:27:24.088Z,22.13
2022-07-31T06:30:06.979Z,22.19
2022-07-31T06:32:39.758Z,22.19
2022-07-31T06:35:11.774Z,22.20
2022-07-31T06:38:03.855Z,22.21
2022-07-31T06:40:45.300Z,22.24
2022-07-31T06:43:40.673Z,22.26
2022-07-31T06:46:49.129Z,22.29
2022-07-31T06:49:40.897Z,22.28
2022-07-31T06:52:13.158Z,22.29
2022-07-31T06:54:45.352Z,22.32
2022-07-31T06:57:17.896Z,22.34
2022-07-31T06:59:50.095Z,22.38
2022-07-31T07:02:22.269Z,22.39
2022-07-31T07:05:01.504Z,22.40
2022-07-31T07:07:37.669Z,22.45
2022-07-31T07:10:12.383Z,22.45
2022-07-31T07:13:03.501Z,22.43
2022-07-31T07:15:40.211Z,22.43
2022-07-31T07:18:12.558Z,22.46
2022-07-31T07:20:54.046Z,22.51
2022-07-31T07:23:26.487Z,22.56
2022-07-31T07:26:17.520Z,22.66
2022-07-31T07:28:50.185Z,22.73
2022-07-31T07:31:23.607Z,22.81
2022-07-31T07:33:56.244Z,22.85
2022-07-31T07:36:29.018Z,22.85
2022-07-31T07:39:03.839Z,22.88
2022-07-31T07:41:38.690Z,22.89
2022-07-31T07:44:10.741Z,22.93
2022-07-31T07:46:43.041Z,22.96
2022-07-31T07:49:19.402Z,22.98
2022-07-31T07:52:04.067Z,23.00
2022-07-31T07:55:02.899Z,22.94
2022-07-31T07:58:12.171Z,22.94
2022-07-31T08:01:03.130Z,22.97
2022-07-31T08:03:49.952Z,23.02
2022-07-31T08:06:23.949Z,23.09
2022-07-31T08:08:55.962Z,23.18
2022-07-31T08:11:47.825Z,23.25
2022-07-31T08:14:28.678Z,23.30
2022-07-31T08:17:19.575Z,23.38
2022-07-31T08:19:52.201Z,23.38
2022-07-31T08:22:24.125Z,23.39
2022-07-31T08:24:57.052Z,23.39
2022-07-31T08:27:39.343Z,23.40
2022-07-31T08:30:12.135Z,23.41
2022-07-31T08:32:44.347Z,23.42
2022-07-31T08:35:26.224Z,23.47
2022-07-31T08:38:03.857Z,23.47
2022-07-31T08:40:43.622Z,23.53
2022-07-31T08:46:08.420Z,23.68
2022-07-31T08:48:43.861Z,23.74
2022-07-31T08:51:17.082Z,23.79
2022-07-31T08:54:10.518Z,23.90
2022-07-31T08:56:42.815Z,23.97
2022-07-31T08:59:17.494Z,23.97
2022-07-31T09:01:50.313Z,23.98
2022-07-31T09:04:23.765Z,24.02
2022-07-31T09:06:58.259Z,24.09
2022-07-31T09:09:50.273Z,24.17
2022-07-31T09:12:34.074Z,24.23
2022-07-31T09:15:26.857Z,24.27
2022-07-31T09:17:58.818Z,24.30
2022-07-31T09:20:32.826Z,24.31
2022-07-31T09:23:10.034Z,24.26
2022-07-31T09:25:55.190Z,24.23
2022-07-31T09:28:37.118Z,24.26
2022-07-31T09:31:10.514Z,24.28
2022-07-31T09:34:01.525Z,24.38
2022-07-31T09:36:45.432Z,24.46
2022-07-31T09:39:37.306Z,24.54
2022-07-31T09:42:45.993Z,24.64
2022-07-31T09:45:25.674Z,24.70
2022-07-31T09:48:06.997Z,24.81
2022-07-31T09:51:01.875Z,24.93
2022-07-31T09:53:50.130Z,24.96
2022-07-31T09:56:46.882Z,25.04
2022-07-31T09:59:19.309Z,25.13
2022-07-31T10:01:52.030Z,25.23
2022-07-31T10:04:24.579Z,25.37
2022-07-31T10:06:57.528Z,25.44
2022-07-31T10:09:30.578Z,25.51
2022-07-31T10:12:16.470Z,25.65
2022-07-31T10:14:51.163Z,25.78
2022-07-31T10:17:27.732Z,25.93
2022-07-31T10:20:22.202Z,26.05
2022-07-31T10:23:17.119Z,26.14
2022-07-31T10:25:54.920Z,26.21
2022-07-31T10:28:29.818Z,26.27
2022-07-31T10:31:03.454Z,26.28
2022-07-31T10:33:44.811Z,26.35
2022-07-31T10:36:38.143Z,26.49
2022-07-31T10:40:09.565Z,26.65
2022-07-31T10:43:12.243Z,26.79
2022-07-31T10:45:49.597Z,26.89
2022-07-31T10:48:52.839Z,27.00
2022-07-31T10:51:50.893Z,27.08
2022-07-31T10:54:46.575Z,27.18
2022-07-31T10:58:07.285Z,27.34
2022-07-31T11:00:43.448Z,27.42
2022-07-31T11:03:24.712Z,27.53
2022-07-31T11:06:24.775Z,27.62
2022-07-31T11:09:01.798Z,27.65
2022-07-31T11:11:57.806Z,27.66
2022-07-31T11:14:43.425Z,27.64
2022-07-31T11:18:22.429Z,27.61
2022-07-31T11:20:59.783Z,27.56
2022-07-31T11:23:32.822Z,27.55
2022-07-31T11:26:07.049Z,27.52
2022-07-31T11:28:39.257Z,27.52
2022-07-31T11:31:11.545Z,27.52
2022-07-31T11:33:46.112Z,27.56
2022-07-31T11:36:25.916Z,27.67
2022-07-31T11:38:58.166Z,27.83
2022-07-31T11:41:38.180Z,28.20
2022-07-31T11:44:22.522Z,28.92
2022-07-31T11:46:54.916Z,29.47
2022-07-31T11:49:47.723Z,29.85
2022-07-31T11:52:31.027Z,30.21
2022-07-31T11:55:12.588Z,30.47
2022-07-31T11:57:51.624Z,30.61
2022-07-31T12:00:29.250Z,30.60
2022-07-31T12:03:02.370Z,30.47
2022-07-31T12:05:44.240Z,30.34
2022-07-31T12:08:17.726Z,30.25
2022-07-31T12:10:52.842Z,30.16
2022-07-31T12:13:25.763Z,30.10
2022-07-31T12:16:00.898Z,30.16
2022-07-31T12:18:46.114Z,30.28
2022-07-31T12:21:20.092Z,30.45
2022-07-31T12:23:53.261Z,30.64
2022-07-31T12:26:28.552Z,30.72
2022-07-31T12:29:06.320Z,31.05
2022-07-31T12:31:52.565Z,31.80
2022-07-31T12:34:29.008Z,31.95
2022-07-31T12:37:11.828Z,31.93
2022-07-31T12:39:54.449Z,31.92
2022-07-31T12:42:40.827Z,31.87
2022-07-31T12:45:20.114Z,31.71
2022-07-31T12:47:54.270Z,31.51
2022-07-31T12:50:28.702Z,31.37
2022-07-31T12:53:02.855Z,31.14
2022-07-31T12:55:35.192Z,30.91
2022-07-31T12:58:07.524Z,30.65
2022-07-31T13:00:40.331Z,30.41
2022-07-31T13:03:12.778Z,30.20
2022-07-31T13:05:48.078Z,29.94
2022-07-31T13:08:22.729Z,29.62
2022-07-31T13:10:55.116Z,29.32
2022-07-31T13:13:27.553Z,29.08
2022-07-31T13:16:00.149Z,28.98
2022-07-31T13:18:34.180Z,28.85
2022-07-31T13:21:06.739Z,28.67
2022-07-31T13:23:39.280Z,28.53
2022-07-31T13:26:11.541Z,28.39
2022-07-31T13:28:43.771Z,28.24
2022-07-31T13:31:16.003Z,28.09
2022-07-31T13:33:48.312Z,27.96
2022-07-31T13:36:20.561Z,27.87
2022-07-31T13:38:52.777Z,27.77
2022-07-31T13:41:26.044Z,27.77
2022-07-31T13:44:00.431Z,27.86
2022-07-31T13:46:33.276Z,27.96
2022-07-31T13:49:09.142Z,28.02
2022-07-31T13:51:41.474Z,28.05
2022-07-31T13:54:13.703Z,28.01
2022-07-31T13:56:45.988Z,28.03
2022-07-31T13:59:18.470Z,28.06
2022-07-31T14:02:03.529Z,28.04
2022-07-31T14:04:38.417Z,28.02
2022-07-31T14:07:13.104Z,27.95
2022-07-31T14:09:51.302Z,27.82
2022-07-31T14:12:27.717Z,27.70
2022-07-31T14:14:59.940Z,27.65
2022-07-31T14:17:32.365Z,27.63
2022-07-31T14:20:05.119Z,27.60
2022-07-31T14:22:37.468Z,27.57
2022-07-31T14:25:10.544Z,27.53
2022-07-31T14:27:44.518Z,27.45
2022-07-31T14:30:20.115Z,27.37
2022-07-31T14:32:52.550Z,27.30
2022-07-31T14:35:24.818Z,27.22
2022-07-31T14:37:58.434Z,27.17
2022-07-31T14:40:33.262Z,27.13
2022-07-31T14:43:05.560Z,27.08
2022-07-31T14:45:52.076Z,27.05
2022-07-31T14:48:24.889Z,26.94
2022-07-31T14:50:57.257Z,26.88
2022-07-31T14:53:29.521Z,26.83
2022-07-31T14:56:03.504Z,26.75
2022-07-31T14:58:58.291Z,26.71
2022-07-31T15:01:30.868Z,26.60
2022-07-31T15:04:03.715Z,26.35
2022-07-31T15:06:41.347Z,26.01
2022-07-31T15:09:28.792Z,25.53
2022-07-31T15:12:01.996Z,25.03
2022-07-31T15:14:35.158Z,24.63
2022-07-31T15:17:07.505Z,24.30
2022-07-31T15:19:40.109Z,23.93
2022-07-31T15:22:16.441Z,23.69
2022-07-31T15:24:50.253Z,23.48
2022-07-31T15:27:24.239Z,23.28
2022-07-31T15:30:05.704Z,23.19
2022-07-31T15:32:39.873Z,23.22
2022-07-31T15:35:12.596Z,23.23
2022-07-31T15:37:45.598Z,23.15
2022-07-31T15:40:18.114Z,23.13
2022-07-31T15:42:50.327Z,23.11
2022-07-31T15:45:22.692Z,23.15
2022-07-31T15:47:54.867Z,23.21
2022-07-31T15:50:27.082Z,23.30
2022-07-31T15:52:59.622Z,23.40
2022-07-31T15:55:33.489Z,23.48
2022-07-31T15:58:05.723Z,23.55
2022-07-31T16:00:38.011Z,23.61
2022-07-31T16:03:15.475Z,23.66
2022-07-31T16:05:55.834Z,23.68
2022-07-31T16:08:35.425Z,23.72
2022-07-31T16:11:08.282Z,23.79
2022-07-31T16:13:40.779Z,23.84
2022-07-31T16:16:13.625Z,23.88
2022-07-31T16:18:45.848Z,23.86
2022-07-31T16:21:18.166Z,23.86
2022-07-31T16:23:50.538Z,23.86
2022-07-31T16:26:22.767Z,23.88
2022-07-31T16:28:55.039Z,23.93
2022-07-31T16:31:30.513Z,23.95
2022-07-31T16:34:02.941Z,23.98
2022-07-31T16:36:35.285Z,23.99
2022-07-31T16:39:19.962Z,24.01
2022-07-31T16:41:55.048Z,23.96
2022-07-31T16:44:27.508Z,23.94
2022-07-31T16:47:00.334Z,23.89
2022-07-31T16:49:36.840Z,23.83
2022-07-31T16:52:09.321Z,23.76
2022-07-31T16:54:42.105Z,23.70
2022-07-31T16:57:15.415Z,23.60
2022-07-31T16:59:56.819Z,23.48
2022-07-31T17:02:29.914Z,23.29
2022-07-31T17:05:02.206Z,23.17
2022-07-31T17:07:34.352Z,23.12
2022-07-31T17:10:07.093Z,23.11
2022-07-31T17:12:39.361Z,23.14
2022-07-31T17:15:11.949Z,23.21
2022-07-31T17:17:44.253Z,23.28
2022-07-31T17:20:23.343Z,23.35
2022-07-31T17:22:55.911Z,23.40
2022-07-31T17:25:28.091Z,23.43
2022-07-31T17:28:00.438Z,23.47
2022-07-31T17:30:32.728Z,23.47
2022-07-31T17:33:05.284Z,23.47
2022-07-31T17:35:37.866Z,23.49
2022-07-31T17:38:09.972Z,23.49
2022-07-31T17:40:43.815Z,23.49
2022-07-31T17:43:16.456Z,23.48
2022-07-31T17:45:59.579Z,23.47
2022-07-31T17:48:39.308Z,23.40
2022-07-31T17:51:12.155Z,23.35
2022-07-31T17:53:55.330Z,23.23
2022-07-31T17:56:31.180Z,23.10
2022-07-31T17:59:07.386Z,22.99
2022-07-31T18:01:39.773Z,22.90
2022-07-31T18:04:12.384Z,22.85
2022-07-31T18:06:52.777Z,22.78
2022-07-31T18:09:27.889Z,22.74
2022-07-31T18:12:00.315Z,22.69
2022-07-31T18:14:32.561Z,22.64
2022-07-31T18:17:05.184Z,22.57
2022-07-31T18:19:37.293Z,22.53
2022-07-31T18:22:09.457Z,22.52
2022-07-31T18:24:41.689Z,22.52
2022-07-31T18:27:14.000Z,22.58
2022-07-31T18:29:53.936Z,22.59
2022-07-31T18:32:31.763Z,22.61
2022-07-31T18:35:04.982Z,22.61
2022-07-31T18:37:37.124Z,22.63
2022-07-31T18:40:09.641Z,22.63
2022-07-31T18:42:42.208Z,22.61
2022-07-31T18:45:14.436Z,22.61
2022-07-31T18:47:46.790Z,22.60
2022-07-31T18:50:58.983Z,22.58
2022-07-31T18:53:11.381Z,22.55
2022-07-31T18:55:44.669Z,22.53
2022-07-31T18:58:16.861Z,22.52
2022-07-31T19:00:54.558Z,22.48
2022-07-31T19:03:29.721Z,22.47
2022-07-31T19:06:01.981Z,22.45
2022-07-31T19:08:34.519Z,22.41
2022-07-31T19:11:06.782Z,22.36
2022-07-31T19:13:39.027Z,22.30
2022-07-31T19:16:11.352Z,22.22
2022-07-31T19:18:43.966Z,22.14
2022-07-31T19:21:23.129Z,22.09
2022-07-31T19:24:08.788Z,22.01
2022-07-31T19:26:41.049Z,21.92
2022-07-31T19:29:13.926Z,21.92
2022-07-31T19:31:49.330Z,21.88
2022-07-31T19:34:21.595Z,21.88
2022-07-31T19:36:53.717Z,21.89
2022-07-31T19:39:25.912Z,21.89
2022-07-31T19:42:10.771Z,21.90
2022-07-31T19:44:44.278Z,21.87
2022-07-31T19:47:16.590Z,21.84
2022-07-31T19:49:48.899Z,21.80
2022-07-31T19:52:21.240Z,21.77
2022-07-31T19:54:53.427Z,21.76
2022-07-31T19:57:25.614Z,21.74
2022-07-31T19:59:59.148Z,21.72
2022-07-31T20:02:31.252Z,21.67
2022-07-31T20:05:04.042Z,21.62
2022-07-31T20:07:38.199Z,21.57
2022-07-31T20:10:10.718Z,21.52
2022-07-31T20:12:44.666Z,21.49
2022-07-31T20:15:16.990Z,21.49
2022-07-31T20:17:49.297Z,21.44
2022-07-31T20:20:21.488Z,21.41
2022-07-31T20:22:54.000Z,21.40
2022-07-31T20:25:26.232Z,21.36
2022-07-31T20:27:58.433Z,21.30
2022-07-31T20:30:31.673Z,21.29
2022-07-31T20:33:03.916Z,21.30
2022-07-31T20:35:49.428Z,21.29
2022-07-31T20:38:22.795Z,21.26
2022-07-31T20:40:56.009Z,21.20
2022-07-31T20:43:29.852Z,21.16
2022-07-31T20:46:02.043Z,21.15
2022-07-31T20:48:34.993Z,21.19
2022-07-31T20:51:09.162Z,21.22
2022-07-31T20:53:41.397Z,21.22
2022-07-31T20:56:13.923Z,21.26
2022-07-31T20:58:51.435Z,21.29
2022-07-31T21:01:25.062Z,21.32
2022-07-31T21:03:57.386Z,21.35
2022-07-31T21:06:29.537Z,21.37
2022-07-31T21:09:04.627Z,21.39
2022-07-31T21:11:36.977Z,21.38
2022-07-31T21:14:09.079Z,21.40
2022-07-31T21:16:41.475Z,21.42
2022-07-31T21:19:13.732Z,21.42
2022-07-31T21:21:46.073Z,21.45
2022-07-31T21:24:18.902Z,21.49
2022-07-31T21:26:53.938Z,21.47
2022-07-31T21:29:30.564Z,21.49
2022-07-31T21:32:03.523Z,21.48
2022-07-31T21:34:37.133Z,21.49
2022-07-31T21:37:09.676Z,21.49
2022-07-31T21:39:48.957Z,21.48
2022-07-31T21:42:30.981Z,21.43
2022-07-31T21:45:11.946Z,21.38
2022-07-31T21:47:52.322Z,21.32
2022-07-31T21:50:39.962Z,21.28
2022-07-31T21:53:27.590Z,21.22
2022-07-31T21:56:02.383Z,21.12
2022-07-31T21:58:37.818Z,21.08
2022-07-31T22:01:11.937Z,21.07
2022-07-31T22:03:54.734Z,21.03
2022-07-31T22:06:46.568Z,21.04
2022-07-31T22:09:27.594Z,21.08
2022-07-31T22:12:12.868Z,21.09
2022-07-31T22:14:49.284Z,21.10
2022-07-31T22:17:24.883Z,21.13
2022-07-31T22:19:59.179Z,21.14
2022-07-31T22:22:36.594Z,21.14
2022-07-31T22:25:10.634Z,21.15
2022-07-31T22:27:58.279Z,21.13
2022-07-31T22:30:35.221Z,21.10
2022-07-31T22:33:11.738Z,21.07
2022-07-31T22:35:45.269Z,21.04
2022-07-31T22:38:32.414Z,20.99
2022-07-31T22:41:10.087Z,20.97
2022-07-31T22:44:13.853Z,20.97
2022-07-31T22:46:42.622Z,20.98
2022-07-31T22:49:16.825Z,21.00
2022-07-31T22:51:50.304Z,20.99
2022-07-31T22:54:23.885Z,20.98
2022-07-31T22:56:57.237Z,21.01
2022-07-31T22:59:31.097Z,21.04
2022-07-31T23:02:05.694Z,21.08
2022-07-31T23:04:44.378Z,21.10
2022-07-31T23:07:17.891Z,21.09
2022-07-31T23:09:51.033Z,21.09
2022-07-31T23:12:37.747Z,21.05
2022-07-31T23:15:16.046Z,21.05
2022-07-31T23:17:49.289Z,21.04
2022-07-31T23:20:28.385Z,21.07
2022-07-31T23:23:04.136Z,21.09
2022-07-31T23:25:37.328Z,21.11
2022-07-31T23:28:10.635Z,21.15
2022-07-31T23:30:47.028Z,21.19
2022-07-31T23:33:20.216Z,21.21
2022-07-31T23:35:53.694Z,21.23
2022-07-31T23:38:34.951Z,21.22
2022-07-31T23:41:08.783Z,21.22
2022-07-31T23:43:41.978Z,21.23
2022-07-31T23:46:30.809Z,21.22
2022-07-31T23:49:04.319Z,21.24
2022-07-31T23:51:37.448Z,21.24
2022-07-31T23:54:10.517Z,21.26
2022-07-31T23:56:46.655Z,21.24
2022-07-31T23:59:19.892Z,21.21
